Estación Meteorológica Peña el Pijo (Robertgarden) [ 06/25/18 14:04:57 CEST ]

Fecha Hora Presion(HPa) Temp (°C) Humedad % Rocio (°C) Viento ( m/s) Direccion Lluvia 1Hora(mm) Lluvia 24H(mm) LLuvia Total(mm)
2018-Jun-16 01:01:41 1009.200 13.8 67 7.8         266.25
2018-Jun-16 02:02:00 1009.200 12.8 69 7.3         266.25
2018-Jun-16 03:01:38 1008.800 12.4 70 7.1         266.25
2018-Jun-16 04:01:42 1008.400 11.9 71 6.8         266.25
2018-Jun-16 05:01:42 1008.100 11.3 73 6.6         266.25
2018-Jun-16 06:01:41 1008.200 10.8 76 6.7         266.25
2018-Jun-16 07:01:43 1008.300 10.3 78 6.6         266.25
2018-Jun-16 08:01:53 1008.600 13.6 80 10.2         266.25
2018-Jun-16 09:01:47 1008.600 20.4 65 13.6         266.25
2018-Jun-16 10:01:41 1008.600 26.3 48 14.4         266.25
2018-Jun-16 11:01:48 1008.600 28.7 39 13.4         266.25
2018-Jun-16 12:01:42 1008.800 31.7 32 12.9         266.25
2018-Jun-16 13:01:53 1008.600 32.9 31 13.5         266.25
2018-Jun-16 14:01:49 1008.400 31.9 31 12.6         266.25
2018-Jun-16 15:01:43 1008.300 30.6 32 12.0         266.25
2018-Jun-16 16:01:49 1008.200 32.4 28 11.4         266.25
2018-Jun-16 17:01:42 1007.700 33.8 28 12.6         266.25
2018-Jun-16 18:01:35 1007.900 29.3 30 10.0         266.25
2018-Jun-16 19:01:53 1008.000 28.7 31 9.9         266.25
2018-Jun-16 20:01:33 1008.200 27.6 30 8.5         266.25
2018-Jun-16 21:01:27 1008.600 24.0 36 7.6         266.25
2018-Jun-16 22:01:28 1009.300 21.4 41 7.6         266.25
2018-Jun-16 23:01:25 1010.100 18.4 52 8.3         266.25

Temperatura Máxima:33°    Temperatura Mínima:10°
Presión Máxima:1010.100 Hpa    Presión Mínima:1007.700 Hpa


Volver